Time;durP1;ratioP1;P1;durP2;ratioP2;P2;SDS_P1;SDS_P2;PMS_P1;PMS_P2;Temp;Humidity;BMP_temperature;BMP_pressure;BME280_temperature;BME280_humidity;BME280_pressure;Samples;Min_cycle;Max_cycle;Signal;HPM_P1;HPM_P2
2023/06/22 00:02:19;;;;;;;15.33;7.37;;;;;;;19.71;100.00;101407.41;5033643;28;20545;-69
2023/06/22 00:04:45;;;;;;;14.00;7.13;;;;;;;19.68;100.00;101408.09;5033603;28;20487;-69
2023/06/22 00:07:12;;;;;;;11.77;6.47;;;;;;;19.67;100.00;101398.25;5033842;28;20474;-69
2023/06/22 00:09:39;;;;;;;12.63;6.17;;;;;;;19.61;100.00;101407.84;5033893;28;20882;-69
2023/06/22 00:12:06;;;;;;;14.03;6.53;;;;;;;19.64;100.00;101409.91;5033468;28;20499;-69
2023/06/22 00:14:33;;;;;;;13.27;6.67;;;;;;;19.64;100.00;101413.47;5033772;28;20466;-67
2023/06/22 00:16:59;;;;;;;11.70;5.60;;;;;;;19.62;100.00;101425.97;5033706;28;20474;-69
2023/06/22 00:19:27;;;;;;;13.07;6.63;;;;;;;19.61;100.00;101429.81;5033867;28;20486;-69
2023/06/22 00:21:54;;;;;;;13.73;7.03;;;;;;;19.61;100.00;101430.66;5033879;28;20554;-70
2023/06/22 00:24:21;;;;;;;12.93;7.00;;;;;;;19.56;100.00;101427.28;5033866;28;20501;-68
2023/06/22 00:26:49;;;;;;;11.63;6.27;;;;;;;19.55;100.00;101431.97;5033797;28;20439;-69
2023/06/22 00:29:16;;;;;;;12.17;5.50;;;;;;;19.58;100.00;101430.50;5033688;28;20538;-69
2023/06/22 00:31:43;;;;;;;14.53;7.00;;;;;;;19.50;100.00;101434.94;5033455;28;20463;-70
2023/06/22 00:34:09;;;;;;;13.53;6.83;;;;;;;19.47;100.00;101434.81;5033403;28;20942;-69
2023/06/22 00:36:40;;;;;;;12.70;5.90;;;;;;;19.48;100.00;101430.91;5033906;28;20448;-70
2023/06/22 00:39:07;;;;;;;11.47;6.00;;;;;;;19.48;100.00;101430.91;5033305;28;20982;-69
2023/06/22 00:41:34;;;;;;;13.23;6.23;;;;;;;19.50;100.00;101428.66;5033445;28;20996;-69
2023/06/22 00:44:00;;;;;;;12.40;6.40;;;;;;;19.45;100.00;101431.63;5033236;28;21015;-69
2023/06/22 00:46:27;;;;;;;8.97;4.63;;;;;;;19.44;100.00;101435.53;5033556;28;20449;-69
2023/06/22 00:48:57;;;;;;;14.57;7.30;;;;;;;19.32;100.00;101434.31;5034890;28;20478;-68
2023/06/22 00:51:24;;;;;;;9.90;4.63;;;;;;;19.26;100.00;101430.19;5035703;28;20463;-68
2023/06/22 00:53:53;;;;;;;13.43;6.43;;;;;;;19.26;100.00;101434.91;5038396;28;20459;-70
2023/06/22 00:56:24;;;;;;;13.03;6.13;;;;;;;19.24;100.00;101435.22;5042705;28;20818;-69
2023/06/22 00:58:53;;;;;;;10.73;5.40;;;;;;;19.26;100.00;101438.44;5041932;28;20518;-69
2023/06/22 01:01:23;;;;;;;12.90;6.17;;;;;;;19.26;100.00;101435.69;5038415;28;20493;-69
2023/06/22 01:03:51;;;;;;;12.47;5.73;;;;;;;19.24;100.00;101442.66;5035919;28;20443;-69
2023/06/22 01:06:27;;;;;;;13.40;6.97;;;;;;;19.19;100.00;101445.63;5033836;28;20450;-70
2023/06/22 01:09:05;;;;;;;12.17;7.17;;;;;;;19.12;100.00;101443.41;5033411;28;20514;-69
2023/06/22 01:11:38;;;;;;;11.70;6.50;;;;;;;19.05;100.00;101441.22;5033195;28;20463;-70
2023/06/22 01:14:12;;;;;;;14.83;6.10;;;;;;;19.08;100.00;101450.72;5033257;28;20431;-70
2023/06/22 01:16:44;;;;;;;13.17;6.20;;;;;;;18.99;100.00;101434.34;5032950;28;20934;-70
2023/06/22 01:19:26;;;;;;;12.50;6.30;;;;;;;18.93;100.00;101432.13;5037387;28;20491;-70
2023/06/22 01:21:54;;;;;;;12.30;6.47;;;;;;;18.85;100.00;101431.06;5038211;28;20479;-70
2023/06/22 01:24:27;;;;;;;13.20;6.33;;;;;;;18.83;100.00;101433.34;5038990;28;20816;-70
2023/06/22 01:27:00;;;;;;;12.90;6.40;;;;;;;18.89;100.00;101438.28;5036194;28;20430;-70
2023/06/22 01:29:31;;;;;;;13.97;6.37;;;;;;;18.90;100.00;101434.44;5032969;28;20858;-71
2023/06/22 01:31:58;;;;;;;10.60;5.57;;;;;;;18.84;100.00;101435.75;5034760;28;21091;-65
2023/06/22 01:34:26;;;;;;;15.23;7.80;;;;;;;18.79;100.00;101437.91;5040309;28;20443;-66
2023/06/22 01:36:53;;;;;;;12.20;5.93;;;;;;;18.80;100.00;101445.78;5038367;28;20509;-66
2023/06/22 01:39:21;;;;;;;13.23;6.33;;;;;;;18.77;100.00;101451.16;5037458;28;20526;-70
2023/06/22 01:41:49;;;;;;;11.80;5.93;;;;;;;18.70;100.00;101445.41;5036683;28;20553;-70
2023/06/22 01:44:17;;;;;;;11.60;5.97;;;;;;;18.70;100.00;101451.69;5036682;28;20439;-70
2023/06/22 01:46:45;;;;;;;12.30;5.93;;;;;;;18.63;100.00;101454.13;5036601;28;20486;-71
2023/06/22 01:49:13;;;;;;;14.50;6.60;;;;;;;18.67;100.00;101455.06;5036692;28;20439;-70
2023/06/22 01:51:40;;;;;;;14.00;6.90;;;;;;;18.61;100.00;101448.19;5036739;28;20566;-69
2023/06/22 01:54:08;;;;;;;13.70;6.57;;;;;;;18.56;100.00;101451.94;5055724;22;20483;-76
2023/06/22 01:56:34;;;;;;;14.53;6.70;;;;;;;18.51;100.00;101459.56;5056097;28;20964;-76
2023/06/22 01:59:10;;;;;;;10.80;5.67;;;;;;;18.53;100.00;101458.09;5056293;28;20529;-75
2023/06/22 02:01:43;;;;;;;12.53;6.10;;;;;;;18.61;100.00;101453.69;5056042;28;21032;-75
2023/06/22 02:04:14;;;;;;;10.73;5.43;;;;;;;18.59;100.00;101448.53;5055924;28;20426;-75
2023/06/22 02:06:46;;;;;;;12.50;6.20;;;;;;;18.55;100.00;101450.34;5056304;28;20513;-76
2023/06/22 02:09:17;;;;;;;12.90;6.13;;;;;;;18.51;100.00;101451.34;5056167;28;20422;-76
2023/06/22 02:11:46;;;;;;;10.57;5.50;;;;;;;18.53;100.00;101462.78;5056178;28;20529;-75
2023/06/22 02:14:14;;;;;;;10.80;5.90;;;;;;;18.52;100.00;101461.16;5055754;28;20891;-75
2023/06/22 02:16:42;;;;;;;13.70;7.23;;;;;;;18.51;100.00;101456.81;5056130;28;20442;-76
2023/06/22 02:19:10;;;;;;;10.73;6.20;;;;;;;18.57;100.00;101466.47;5056002;28;20448;-76
2023/06/22 02:21:37;;;;;;;13.03;5.90;;;;;;;18.54;100.00;101464.38;5055697;28;21058;-76
2023/06/22 02:24:05;;;;;;;12.30;6.27;;;;;;;18.48;100.00;101462.97;5055904;28;20474;-75
2023/06/22 02:26:34;;;;;;;12.97;6.83;;;;;;;18.44;100.00;101471.06;5055953;28;20521;-76
2023/06/22 02:29:00;;;;;;;11.97;6.17;;;;;;;18.43;100.00;101474.94;5055925;28;20450;-76
2023/06/22 02:31:30;;;;;;;13.83;6.93;;;;;;;18.54;100.00;101469.84;5055890;28;20541;-76
2023/06/22 02:33:57;;;;;;;10.37;5.60;;;;;;;18.58;100.00;101479.03;5055525;28;20499;-75
2023/06/22 02:36:26;;;;;;;11.43;6.37;;;;;;;18.62;100.00;101463.50;5055868;28;20469;-75
2023/06/22 02:38:54;;;;;;;12.40;5.20;;;;;;;18.61;100.00;101470.94;5055475;28;20945;-75
2023/06/22 02:41:21;;;;;;;12.10;5.70;;;;;;;18.67;100.00;101471.53;5055514;28;20486;-75
2023/06/22 02:43:48;;;;;;;14.80;6.40;;;;;;;18.67;100.00;101469.59;5054171;28;20434;-76
2023/06/22 02:46:15;;;;;;;12.17;6.07;;;;;;;18.71;100.00;101475.25;5055479;28;21067;-76
2023/06/22 02:48:41;;;;;;;14.50;6.30;;;;;;;18.75;100.00;101478.94;5055252;28;20567;-76
2023/06/22 02:51:08;;;;;;;12.00;5.90;;;;;;;18.62;100.00;101469.00;5055440;28;20438;-76
2023/06/22 02:53:36;;;;;;;12.10;6.20;;;;;;;18.63;100.00;101465.91;5055336;28;20902;-76
2023/06/22 02:56:05;;;;;;;13.07;6.90;;;;;;;18.75;100.00;101470.72;5054990;28;20481;-76
2023/06/22 02:58:38;;;;;;;11.07;5.57;;;;;;;18.77;100.00;101479.44;5055445;28;20427;-76
2023/06/22 03:01:05;;;;;;;12.07;5.47;;;;;;;18.74;100.00;101473.78;5054988;28;20984;-76
2023/06/22 03:03:32;;;;;;;9.60;5.07;;;;;;;18.75;100.00;101472.66;5055201;28;20442;-76
2023/06/22 03:06:00;;;;;;;12.83;5.67;;;;;;;18.75;100.00;101473.44;5054759;28;20481;-76
2023/06/22 03:08:27;;;;;;;12.30;6.10;;;;;;;18.84;100.00;101476.94;5055084;28;20450;-76
2023/06/22 03:10:55;;;;;;;14.30;6.03;;;;;;;18.88;100.00;101468.84;5055031;28;20448;-76
2023/06/22 03:13:22;;;;;;;10.50;5.80;;;;;;;18.89;100.00;101467.69;5055031;28;20446;-76
2023/06/22 03:15:48;;;;;;;12.63;6.50;;;;;;;18.90;100.00;101461.88;5054840;28;20569;-76
2023/06/22 03:18:15;;;;;;;12.63;5.60;;;;;;;18.92;100.00;101467.03;5054604;28;20965;-76
2023/06/22 03:20:42;;;;;;;10.80;5.23;;;;;;;18.93;100.00;101463.13;5054506;28;20482;-76
2023/06/22 03:23:09;;;;;;;11.70;6.30;;;;;;;18.95;100.00;101468.28;5054837;28;20454;-76
2023/06/22 03:25:36;;;;;;;15.33;7.60;;;;;;;18.96;100.00;101470.72;5054411;28;20550;-76
2023/06/22 03:28:04;;;;;;;15.03;7.20;;;;;;;18.96;100.00;101469.91;5054446;28;21024;-76
2023/06/22 03:30:31;;;;;;;16.40;7.70;;;;;;;19.01;100.00;101467.75;5054381;28;20448;-76
2023/06/22 03:32:57;;;;;;;12.63;5.93;;;;;;;19.05;100.00;101476.13;5054613;28;20563;-76
2023/06/22 03:35:24;;;;;;;13.43;6.50;;;;;;;19.07;100.00;101474.63;5054466;28;20900;-76
2023/06/22 03:37:51;;;;;;;10.53;5.67;;;;;;;19.11;100.00;101474.78;5054436;28;20541;-76
2023/06/22 03:40:17;;;;;;;12.03;6.60;;;;;;;19.15;100.00;101473.75;5054136;28;21076;-76
2023/06/22 03:42:44;;;;;;;12.27;5.60;;;;;;;19.21;100.00;101470.78;5054432;28;20454;-76
2023/06/22 03:45:12;;;;;;;15.00;7.30;;;;;;;19.22;100.00;101464.19;5054321;28;20568;-76
2023/06/22 03:47:39;;;;;;;13.90;6.97;;;;;;;19.23;100.00;101469.34;5054384;28;20474;-76
2023/06/22 03:50:06;;;;;;;11.60;6.40;;;;;;;19.24;100.00;101462.69;5054040;28;20942;-76
2023/06/22 03:52:33;;;;;;;10.37;5.73;;;;;;;19.28;100.00;101465.56;5054301;28;20442;-76
2023/06/22 03:55:00;;;;;;;11.87;6.13;;;;;;;19.32;100.00;101475.53;5053398;28;20505;-76
2023/06/22 03:57:26;;;;;;;15.20;7.03;;;;;;;19.35;100.00;101454.84;5054214;28;20484;-75
2023/06/22 03:59:53;;;;;;;12.40;7.80;;;;;;;19.39;100.00;101475.00;5054102;28;20445;-76
2023/06/22 04:02:21;;;;;;;13.63;7.07;;;;;;;19.41;100.00;101465.25;5054067;28;20489;-76
2023/06/22 04:04:47;;;;;;;14.13;7.77;;;;;;;19.46;100.00;101466.19;5053990;28;20459;-76
2023/06/22 04:07:14;;;;;;;13.37;7.20;;;;;;;19.48;100.00;101474.88;5053571;28;20525;-76
2023/06/22 04:09:40;;;;;;;13.40;6.70;;;;;;;19.52;100.00;101482.16;5053607;28;20449;-76
2023/06/22 04:12:08;;;;;;;14.43;6.93;;;;;;;19.56;100.00;101479.50;5053658;28;20528;-76
2023/06/22 04:14:35;;;;;;;14.00;7.70;;;;;;;19.59;100.00;101484.31;5053440;28;20466;-76
2023/06/22 04:17:02;;;;;;;13.83;7.27;;;;;;;19.64;100.00;101478.63;5053820;28;20478;-76
2023/06/22 04:19:30;;;;;;;13.90;7.30;;;;;;;19.66;100.00;101484.59;5053709;28;20492;-76
2023/06/22 04:21:57;;;;;;;12.30;6.60;;;;;;;19.70;100.00;101480.03;5053607;28;21023;-76
2023/06/22 04:24:24;;;;;;;11.00;5.57;;;;;;;19.73;100.00;101482.09;5053268;28;20462;-76
2023/06/22 04:26:54;;;;;;;12.83;6.17;;;;;;;19.79;100.00;101486.22;5053637;28;20830;-76
2023/06/22 04:29:21;;;;;;;18.40;7.40;;;;;;;19.83;100.00;101489.91;5053299;28;20889;-76
2023/06/22 04:31:50;;;;;;;12.13;6.77;;;;;;;19.89;100.00;101491.28;5053686;28;20445;-73
2023/06/22 04:34:18;;;;;;;12.27;7.00;;;;;;;19.93;100.00;101493.34;5053127;28;20977;-76
2023/06/22 04:36:46;;;;;;;17.70;8.77;;;;;;;19.98;100.00;101504.13;5053573;28;20492;-77
2023/06/22 04:39:13;;;;;;;18.37;6.90;;;;;;;20.04;100.00;101503.53;5053454;28;20457;-76
2023/06/22 04:41:43;;;;;;;13.07;7.17;;;;;;;20.09;100.00;101499.75;5052942;28;21005;-76
2023/06/22 04:44:10;;;;;;;13.87;7.80;;;;;;;20.16;100.00;101511.00;5053304;28;20510;-76
2023/06/22 04:46:38;;;;;;;10.90;5.80;;;;;;;20.22;100.00;101509.63;5053340;28;20438;-76
2023/06/22 04:49:09;;;;;;;11.50;5.90;;;;;;;20.33;100.00;101507.22;5053304;28;20434;-75
2023/06/22 04:51:38;;;;;;;15.40;6.43;;;;;;;20.42;100.00;101510.66;5053341;28;20431;-74
2023/06/22 04:54:06;;;;;;;12.80;5.43;;;;;;;20.52;100.00;101517.69;5052951;28;20948;-75
2023/06/22 04:56:33;;;;;;;12.53;6.00;;;;;;;20.65;100.00;101506.31;5053234;28;20426;-73
2023/06/22 04:59:00;;;;;;;13.70;6.20;;;;;;;20.81;100.00;101517.41;5053291;28;20475;-75
2023/06/22 05:01:26;;;;;;;13.60;5.80;;;;;;;20.92;100.00;101510.25;5053125;28;20569;-74
2023/06/22 05:03:55;;;;;;;10.23;5.03;;;;;;;21.03;100.00;101510.59;5053099;28;20525;-74
2023/06/22 05:06:24;;;;;;;11.27;4.80;;;;;;;21.11;100.00;101511.56;5052195;28;20877;-74
2023/06/22 05:08:52;;;;;;;10.70;4.57;;;;;;;21.20;100.00;101505.91;5052702;28;20453;-75
2023/06/22 05:11:20;;;;;;;10.37;4.60;;;;;;;21.28;100.00;101511.28;5052707;28;20584;-74
2023/06/22 05:13:46;;;;;;;7.47;3.57;;;;;;;21.34;98.67;101503.59;5052708;28;20960;-73
2023/06/22 05:16:13;;;;;;;11.60;4.63;;;;;;;21.45;96.91;101514.91;5052581;28;20549;-73
2023/06/22 05:18:39;;;;;;;7.20;3.30;;;;;;;21.53;95.92;101516.72;5052882;28;20489;-73
2023/06/22 05:21:06;;;;;;;10.97;3.63;;;;;;;21.62;94.93;101522.88;5052803;28;20478;-73
2023/06/22 05:23:33;;;;;;;7.30;3.63;;;;;;;21.68;94.53;101518.69;5053049;28;20882;-73
2023/06/22 05:25:59;;;;;;;8.90;3.30;;;;;;;21.76;94.19;101519.69;5052786;28;20497;-71
2023/06/22 05:28:27;;;;;;;10.10;4.50;;;;;;;21.84;93.94;101521.47;5052552;28;20926;-72
2023/06/22 05:30:54;;;;;;;7.73;3.53;;;;;;;21.90;93.70;101509.00;5052769;28;20445;-74
2023/06/22 05:33:21;;;;;;;6.70;3.23;;;;;;;21.98;94.03;101510.00;5052841;28;20480;-73
2023/06/22 05:35:47;;;;;;;7.67;3.90;;;;;;;22.05;93.69;101510.19;5052721;28;20541;-74
2023/06/22 05:38:15;;;;;;;7.80;3.10;;;;;;;22.08;93.12;101509.44;5052706;28;20960;-73
2023/06/22 05:40:41;;;;;;;7.33;3.70;;;;;;;22.11;92.42;101514.25;5052745;28;20496;-73
2023/06/22 05:43:08;;;;;;;8.43;3.67;;;;;;;22.16;91.96;101522.31;5052327;28;20536;-73
2023/06/22 05:45:36;;;;;;;6.90;2.80;;;;;;;22.21;91.58;101535.03;5052332;28;21063;-73
2023/06/22 05:48:02;;;;;;;7.70;3.70;;;;;;;22.26;91.15;101530.03;5052683;28;20516;-73
2023/06/22 05:50:29;;;;;;;17.03;4.60;;;;;;;22.32;91.52;101536.91;5052504;28;20446;-74
2023/06/22 05:52:55;;;;;;;7.17;2.60;;;;;;;22.31;91.22;101535.31;5052595;28;20442;-74
2023/06/22 05:55:22;;;;;;;8.40;3.40;;;;;;;22.30;90.43;101536.44;5052086;28;20564;-74
2023/06/22 05:57:49;;;;;;;6.60;2.83;;;;;;;22.28;88.96;101530.50;5052559;28;20516;-74
2023/06/22 06:00:16;;;;;;;10.43;3.53;;;;;;;22.29;87.32;101536.81;5052273;28;20482;-74
2023/06/22 06:02:44;;;;;;;9.07;2.90;;;;;;;22.33;86.64;101537.69;5052334;28;20496;-73
2023/06/22 06:05:14;;;;;;;9.53;3.00;;;;;;;22.35;85.63;101535.38;5052459;28;20505;-73
2023/06/22 06:07:40;;;;;;;6.83;2.87;;;;;;;22.40;85.19;101541.44;5052544;28;20446;-73
2023/06/22 06:10:08;;;;;;;7.00;2.53;;;;;;;22.47;84.94;101537.22;5052564;28;20470;-74
2023/06/22 06:12:35;;;;;;;7.43;3.00;;;;;;;22.52;84.94;101534.19;5052444;28;20489;-73
2023/06/22 06:15:01;;;;;;;7.00;2.40;;;;;;;22.55;83.83;101525.19;5052337;28;20681;-73
2023/06/22 06:17:28;;;;;;;7.27;2.43;;;;;;;22.56;83.68;101524.81;5053105;28;20529;-73
2023/06/22 06:19:56;;;;;;;9.87;2.37;;;;;;;22.60;82.36;101519.38;5056085;28;20537;-73
2023/06/22 06:22:23;;;;;;;5.60;2.00;;;;;;;22.60;82.21;101524.91;5055877;28;20481;-73
2023/06/22 06:24:50;;;;;;;6.70;2.10;;;;;;;22.66;81.05;101523.47;5055635;28;20549;-73
2023/06/22 06:27:18;;;;;;;8.50;2.53;;;;;;;22.69;80.68;101533.00;5055854;28;20845;-73
2023/06/22 06:29:48;;;;;;;5.47;1.40;;;;;;;22.72;79.61;101535.03;5055819;28;20442;-73
2023/06/22 06:32:15;;;;;;;7.10;2.40;;;;;;;22.79;77.34;101538.75;5055683;28;20525;-73
2023/06/22 06:34:41;;;;;;;5.80;1.67;;;;;;;22.88;76.77;101553.16;5055559;28;20999;-71
2023/06/22 06:37:09;;;;;;;5.37;1.83;;;;;;;22.92;77.09;101540.25;5055694;28;20524;-73
2023/06/22 06:39:36;;;;;;;6.57;2.47;;;;;;;23.03;76.04;101545.22;5055636;28;20438;-74
2023/06/22 06:42:02;;;;;;;5.83;1.67;;;;;;;23.12;75.34;101551.34;5055205;28;20486;-73
2023/06/22 06:44:29;;;;;;;6.70;2.03;;;;;;;23.21;75.09;101546.41;5055494;28;20466;-73
2023/06/22 06:46:55;;;;;;;8.53;2.20;;;;;;;23.27;74.31;101547.69;5055516;28;20452;-73
2023/06/22 06:49:22;;;;;;;5.97;1.60;;;;;;;23.35;74.43;101543.91;5055435;28;20542;-73
2023/06/22 06:51:49;;;;;;;5.50;1.73;;;;;;;23.45;73.54;101541.72;5055163;28;20530;-74
2023/06/22 06:54:17;;;;;;;6.50;2.10;;;;;;;23.52;73.25;101536.34;5055131;28;20545;-73
2023/06/22 06:56:48;;;;;;;9.30;2.03;;;;;;;23.62;74.28;101530.19;5055283;28;20455;-73
2023/06/22 06:59:15;;;;;;;5.33;1.33;;;;;;;23.69;72.56;101535.91;5055282;28;20474;-75
2023/06/22 07:01:41;;;;;;;5.57;1.70;;;;;;;23.75;72.94;101533.63;5054863;28;20484;-73
2023/06/22 07:04:08;;;;;;;5.40;1.60;;;;;;;23.85;72.53;101528.25;5055197;28;20469;-73
2023/06/22 07:06:34;;;;;;;5.63;1.50;;;;;;;23.92;71.89;101522.88;5055319;28;20448;-73
2023/06/22 07:09:02;;;;;;;5.60;1.73;;;;;;;24.07;72.33;101523.09;5054954;28;20438;-73
2023/06/22 07:11:30;;;;;;;5.53;1.73;;;;;;;24.15;71.79;101520.06;5055067;28;20470;-73
2023/06/22 07:13:56;;;;;;;6.00;1.87;;;;;;;24.19;70.19;101509.06;5054752;28;20449;-73
2023/06/22 07:16:25;;;;;;;5.93;1.97;;;;;;;24.20;69.21;101509.88;5054932;28;20500;-73
2023/06/22 07:18:52;;;;;;;7.47;2.20;;;;;;;24.21;69.64;101505.91;5055131;28;20438;-73
2023/06/22 07:21:18;;;;;;;5.63;2.17;;;;;;;24.21;67.69;101503.94;5054498;28;20449;-73
2023/06/22 07:23:45;;;;;;;5.90;1.67;;;;;;;24.24;67.43;101508.75;5054781;28;20446;-73
2023/06/22 07:26:12;;;;;;;5.17;1.87;;;;;;;24.27;67.96;101502.47;5054672;28;20462;-73
2023/06/22 07:28:40;;;;;;;6.73;1.90;;;;;;;24.32;68.58;101499.38;5054608;28;20532;-73
2023/06/22 07:31:07;;;;;;;6.70;1.83;;;;;;;24.38;68.15;101505.41;5054257;28;20469;-73
2023/06/22 07:33:34;;;;;;;5.57;1.83;;;;;;;24.46;69.35;101506.34;5054414;28;20473;-73
2023/06/22 07:36:01;;;;;;;6.97;2.13;;;;;;;24.54;67.60;101506.06;5054540;28;20840;-73
2023/06/22 07:38:27;;;;;;;5.80;1.97;;;;;;;24.67;65.98;101507.44;5054513;28;20442;-73
2023/06/22 07:40:54;;;;;;;5.70;1.97;;;;;;;24.76;66.14;101504.38;5054451;28;20450;-73
2023/06/22 07:43:20;;;;;;;5.43;1.90;;;;;;;24.76;65.05;101509.94;5054087;28;20548;-72
2023/06/22 07:45:53;;;;;;;5.23;1.63;;;;;;;24.82;64.88;101507.63;5054218;28;20472;-73
2023/06/22 07:48:21;;;;;;;6.43;1.90;;;;;;;24.94;65.56;101515.72;5054093;28;20919;-73
2023/06/22 07:50:47;;;;;;;4.67;1.43;;;;;;;25.00;64.65;101507.84;5054387;28;20452;-74
2023/06/22 07:53:15;;;;;;;4.80;1.30;;;;;;;25.11;63.12;101504.06;5053951;28;20492;-72
2023/06/22 07:55:42;;;;;;;4.87;1.47;;;;;;;25.23;63.20;101505.78;5053840;28;20562;-73
2023/06/22 07:58:08;;;;;;;6.00;1.80;;;;;;;25.30;61.46;101508.63;5054153;28;20446;-72
2023/06/22 08:00:35;;;;;;;6.43;1.63;;;;;;;25.42;61.36;101502.84;5055467;28;20442;-73
2023/06/22 08:03:04;;;;;;;5.03;1.63;;;;;;;25.42;59.72;101499.25;5053960;28;20488;-75
2023/06/22 08:05:31;;;;;;;9.73;2.53;;;;;;;25.36;57.87;101504.34;5053948;28;20526;-74
2023/06/22 08:07:58;;;;;;;5.97;1.60;;;;;;;25.39;59.02;101498.03;5053986;28;20431;-72
2023/06/22 08:10:25;;;;;;;5.43;1.57;;;;;;;25.47;57.68;101500.91;5053599;28;20945;-75
2023/06/22 08:12:52;;;;;;;4.90;1.80;;;;;;;25.57;57.85;101501.00;5053847;28;20529;-72
2023/06/22 08:15:19;;;;;;;5.57;1.50;;;;;;;25.65;57.88;101496.31;5053750;28;20481;-72
2023/06/22 08:17:46;;;;;;;5.37;1.63;;;;;;;25.74;59.93;101496.78;5053431;28;20800;-73
2023/06/22 08:20:14;;;;;;;5.53;1.50;;;;;;;25.60;57.48;101496.66;5053708;28;20826;-73
2023/06/22 08:22:42;;;;;;;4.70;1.27;;;;;;;25.67;58.24;101500.28;5053615;28;20855;-73
2023/06/22 08:25:10;;;;;;;5.50;1.40;;;;;;;25.66;57.95;101501.47;5053268;28;20498;-72
2023/06/22 08:27:37;;;;;;;5.30;1.70;;;;;;;25.70;56.88;101495.97;5053634;28;20863;-72
2023/06/22 08:30:04;;;;;;;4.70;1.33;;;;;;;25.74;57.08;101502.34;5053173;28;20442;-71
2023/06/22 08:32:32;;;;;;;6.23;1.63;;;;;;;25.78;56.28;101502.41;5053212;28;20937;-71
2023/06/22 08:34:59;;;;;;;6.00;1.63;;;;;;;25.84;55.78;101504.44;5053412;28;20469;-72
2023/06/22 08:37:31;;;;;;;4.90;1.40;;;;;;;25.92;56.31;101495.00;5053486;28;20492;-71
2023/06/22 08:39:57;;;;;;;6.20;1.90;;;;;;;26.02;55.18;101498.25;5053184;28;20433;-72
2023/06/22 08:42:25;;;;;;;6.60;1.93;;;;;;;26.11;56.77;101487.59;5052463;28;20482;-72
2023/06/22 08:44:52;;;;;;;7.03;2.00;;;;;;;26.18;55.58;101487.66;5053490;28;20465;-72
2023/06/22 08:47:19;;;;;;;4.83;1.53;;;;;;;26.28;55.79;101492.50;5053319;28;20438;-72
2023/06/22 08:49:45;;;;;;;4.60;1.47;;;;;;;26.38;55.47;101499.28;5053281;28;20533;-72
2023/06/22 08:52:12;;;;;;;11.37;1.93;;;;;;;26.48;53.96;101493.06;5053235;28;20449;-72
2023/06/22 08:54:40;;;;;;;4.40;1.23;;;;;;;26.64;54.26;101504.66;5052972;28;20477;-72
2023/06/22 08:57:07;;;;;;;4.40;1.03;;;;;;;26.75;52.70;101493.59;5052833;28;20812;-72
2023/06/22 08:59:33;;;;;;;4.90;1.20;;;;;;;26.88;52.84;101499.63;5053133;28;20439;-72
2023/06/22 09:02:00;;;;;;;6.63;1.80;;;;;;;26.96;51.54;101497.63;5053020;28;20513;-72
2023/06/22 09:04:27;;;;;;;5.27;1.10;;;;;;;27.10;52.36;101494.97;5053044;28;20494;-76
2023/06/22 09:06:53;;;;;;;8.37;1.90;;;;;;;27.12;50.78;101500.91;5052740;28;20966;-73
2023/06/22 09:09:23;;;;;;;5.13;1.60;;;;;;;27.20;50.04;101496.97;5052734;28;20969;-72
2023/06/22 09:11:51;;;;;;;5.33;1.60;;;;;;;27.28;51.30;101500.56;5052962;28;20443;-73
2023/06/22 09:14:17;;;;;;;7.50;2.23;;;;;;;27.32;51.73;101499.41;5052826;28;20465;-73
2023/06/22 09:16:44;;;;;;;7.20;1.93;;;;;;;27.37;52.44;101490.66;5052936;28;20504;-73
2023/06/22 09:19:11;;;;;;;6.27;1.77;;;;;;;27.31;51.78;101492.22;5052947;28;20442;-73
2023/06/22 09:21:38;;;;;;;5.63;1.60;;;;;;;27.37;53.21;101490.66;5052609;28;20446;-72
2023/06/22 09:24:05;;;;;;;6.20;1.60;;;;;;;27.45;53.08;101493.44;5052957;28;20482;-73
2023/06/22 09:26:32;;;;;;;5.73;1.73;;;;;;;27.62;53.13;101484.31;5052527;28;20442;-72
2023/06/22 09:29:00;;;;;;;7.10;1.87;;;;;;;27.71;49.64;101484.72;5052599;28;20864;-73
2023/06/22 09:31:26;;;;;;;6.80;1.83;;;;;;;27.62;45.67;101475.97;5052759;28;20955;-72
2023/06/22 09:33:54;;;;;;;4.60;1.10;;;;;;;27.70;48.20;101468.41;5052432;28;20934;-73
2023/06/22 09:36:21;;;;;;;4.80;1.17;;;;;;;27.84;48.36;101466.47;5052771;28;20444;-73
2023/06/22 09:38:55;;;;;;;4.93;1.53;;;;;;;28.04;47.54;101464.06;5052829;28;20552;-73
2023/06/22 09:41:22;;;;;;;5.50;1.60;;;;;;;28.16;47.33;101462.88;5052810;28;20437;-73
2023/06/22 09:43:49;;;;;;;6.83;1.83;;;;;;;28.20;46.57;101469.22;5052371;28;20488;-73
2023/06/22 09:46:17;;;;;;;7.73;1.83;;;;;;;28.21;47.27;101470.81;5052380;28;20505;-72
2023/06/22 09:48:44;;;;;;;5.93;1.73;;;;;;;28.08;46.28;101475.22;5052671;28;20445;-73
2023/06/22 09:51:10;;;;;;;7.00;1.73;;;;;;;28.12;47.32;101467.66;5052626;28;20442;-73
2023/06/22 09:53:38;;;;;;;5.00;1.50;;;;;;;28.15;49.48;101467.63;5055321;28;20437;-73
2023/06/22 09:56:06;;;;;;;4.83;1.53;;;;;;;28.43;50.00;101481.97;5056402;28;20477;-72
2023/06/22 09:58:32;;;;;;;7.63;1.60;;;;;;;28.62;46.51;101475.91;5056472;28;20473;-73
2023/06/22 10:00:59;;;;;;;5.67;2.00;;;;;;;28.77;47.23;101473.84;5056470;28;20477;-73
2023/06/22 10:03:27;;;;;;;5.57;1.80;;;;;;;28.72;46.97;101471.50;5056117;28;20570;-73
2023/06/22 10:05:54;;;;;;;10.17;3.10;;;;;;;28.74;46.61;101469.91;5055970;28;20996;-73
2023/06/22 10:08:20;;;;;;;5.97;1.93;;;;;;;28.85;47.57;101469.84;5055996;28;21003;-73
2023/06/22 10:10:47;;;;;;;5.70;2.00;;;;;;;28.92;47.87;101470.63;5055930;28;20963;-73
2023/06/22 10:13:14;;;;;;;5.43;2.00;;;;;;;28.92;46.60;101478.97;5056316;28;20854;-73
2023/06/22 10:15:41;;;;;;;7.33;2.40;;;;;;;28.82;46.98;101477.03;5056119;28;20469;-73
2023/06/22 10:18:08;;;;;;;6.60;2.40;;;;;;;28.77;46.65;101474.66;5056067;28;20441;-73
2023/06/22 10:20:36;;;;;;;5.40;1.80;;;;;;;28.68;47.29;101471.50;5055998;28;20448;-73
2023/06/22 10:23:02;;;;;;;5.77;2.07;;;;;;;28.77;46.72;101469.06;5055919;28;20482;-73
2023/06/22 10:25:29;;;;;;;5.77;1.97;;;;;;;28.64;45.71;101465.97;5055947;28;20460;-73
2023/06/22 10:27:55;;;;;;;5.40;1.67;;;;;;;28.61;48.54;101460.41;5055894;28;20875;-72
2023/06/22 10:30:23;;;;;;;6.00;2.00;;;;;;;28.57;47.83;101460.41;5055950;28;20448;-73
2023/06/22 10:32:50;;;;;;;6.80;2.27;;;;;;;28.58;48.91;101450.03;5055859;28;20817;-72
2023/06/22 10:35:16;;;;;;;4.90;1.60;;;;;;;28.57;49.86;101449.25;5055497;28;20512;-72
2023/06/22 10:37:45;;;;;;;5.70;2.60;;;;;;;28.62;47.23;101445.25;5055785;28;20452;-72
2023/06/22 10:40:13;;;;;;;6.80;2.23;;;;;;;28.55;47.81;101450.84;5055360;28;20450;-72
2023/06/22 10:42:40;;;;;;;6.60;2.43;;;;;;;28.65;48.98;101447.22;5055309;28;20489;-73
2023/06/22 10:45:08;;;;;;;5.97;1.80;;;;;;;28.74;48.38;101439.22;5055506;28;20501;-72
2023/06/22 10:47:35;;;;;;;8.33;2.70;;;;;;;28.88;46.46;101441.94;5055323;28;20822;-73
2023/06/22 10:50:02;;;;;;;6.77;1.93;;;;;;;28.88;45.60;101447.53;5055630;28;20537;-73
2023/06/22 10:52:29;;;;;;;8.77;2.13;;;;;;;29.03;45.38;101427.94;5055451;28;20523;-72
2023/06/22 10:54:57;;;;;;;5.30;1.90;;;;;;;29.14;47.10;101421.09;5055032;28;20547;-72
2023/06/22 10:57:23;;;;;;;5.07;1.80;;;;;;;29.24;47.55;101425.00;5055267;28;20975;-72
2023/06/22 10:59:50;;;;;;;6.33;2.23;;;;;;;29.42;45.73;101414.50;5055144;28;20442;-72
2023/06/22 11:02:17;;;;;;;5.93;2.30;;;;;;;29.48;45.45;101416.84;5055142;28;20826;-72
2023/06/22 11:04:44;;;;;;;8.27;2.10;;;;;;;29.56;45.36;101424.78;5054228;28;20877;-72
2023/06/22 11:07:11;;;;;;;5.27;1.93;;;;;;;29.60;45.58;101425.56;5055261;28;20466;-73
2023/06/22 11:09:39;;;;;;;6.80;2.77;;;;;;;29.71;44.97;101430.28;5054698;28;20929;-73
2023/06/22 11:12:10;;;;;;;5.60;1.47;;;;;;;30.01;43.74;101424.00;5055027;28;20455;-72
2023/06/22 11:14:37;;;;;;;6.67;2.20;;;;;;;30.37;42.65;101419.66;5054629;28;20462;-72
2023/06/22 11:17:03;;;;;;;5.53;2.10;;;;;;;30.55;45.41;101413.06;5054853;28;20434;-72
2023/06/22 11:19:30;;;;;;;5.80;2.07;;;;;;;30.43;42.63;101408.78;5054907;28;20494;-73